Little Rock, Arkansas
Current Conditions -  °F | °C
As of 3:53 PM on Monday 20 Oct 2014 (Local Time) from KLIT Reporting Station
Scattered Clouds Scattered Clouds  
Wind Chill: 23°   Ceiling: Unl
Heat Index: 23°   Visibility: 10mi
Dew Point: 11°   Wind: 5mph
Humidity: 48%   Direction: NA
Pressure: 30.03"   Gusts: NA
Location:  34.75°N, 92.27°W
Report Text: KLIT 202053Z VRB04KT 10SM FEW075 SCT150 SCT250 23/11 A3003 RMK AO2 SLP171 T02280111 56017
Loading
Personal Weather Stations






























Interactive Weather Map New forecast layout! Learn more

10-Day Weather Forecast

Advertisements
Track Severe Weather on mobile